sensor_id;sensor_type;location;lat;lon;timestamp;pressure;altitude;pressure_sealevel;temperature;humidity
7768;BME280;3928;42.626;23.382;2023-05-27T00:00:18;94265.53;;;17.42;95.87
7768;BME280;3928;42.626;23.382;2023-05-27T00:02:45;94273.41;;;17.60;96.84
7768;BME280;3928;42.626;23.382;2023-05-27T00:05:12;94271.72;;;17.79;95.52
7768;BME280;3928;42.626;23.382;2023-05-27T00:07:40;94285.13;;;17.89;95.40
7768;BME280;3928;42.626;23.382;2023-05-27T00:10:08;94287.09;;;17.83;94.80
7768;BME280;3928;42.626;23.382;2023-05-27T00:12:35;94280.28;;;17.61;94.66
7768;BME280;3928;42.626;23.382;2023-05-27T00:15:01;94277.97;;;17.54;95.08
7768;BME280;3928;42.626;23.382;2023-05-27T00:17:29;94278.22;;;17.48;95.49
7768;BME280;3928;42.626;23.382;2023-05-27T00:19:55;94269.81;;;17.43;96.35
7768;BME280;3928;42.626;23.382;2023-05-27T00:22:22;94271.50;;;17.24;97.09
7768;BME280;3928;42.626;23.382;2023-05-27T00:24:51;94271.50;;;17.24;98.08
7768;BME280;3928;42.626;23.382;2023-05-27T00:27:17;94268.91;;;17.04;99.57
7768;BME280;3928;42.626;23.382;2023-05-27T00:29:45;94257.03;;;16.56;100.00
7768;BME280;3928;42.626;23.382;2023-05-27T00:32:11;94265.69;;;16.34;100.00
7768;BME280;3928;42.626;23.382;2023-05-27T00:34:38;94258.84;;;16.10;100.00
7768;BME280;3928;42.626;23.382;2023-05-27T00:37:05;94247.09;;;16.25;100.00
7768;BME280;3928;42.626;23.382;2023-05-27T00:39:33;94246.81;;;16.53;100.00
7768;BME280;3928;42.626;23.382;2023-05-27T00:42:01;94234.91;;;16.49;100.00
7768;BME280;3928;42.626;23.382;2023-05-27T00:44:28;94238.50;;;16.45;100.00
7768;BME280;3928;42.626;23.382;2023-05-27T00:46:55;94240.44;;;16.40;100.00
7768;BME280;3928;42.626;23.382;2023-05-27T00:49:22;94233.78;;;16.54;100.00
7768;BME280;3928;42.626;23.382;2023-05-27T00:51:50;94231.59;;;16.65;99.99
7768;BME280;3928;42.626;23.382;2023-05-27T00:54:18;94217.41;;;16.54;98.62
7768;BME280;3928;42.626;23.382;2023-05-27T00:56:44;94219.41;;;16.69;97.60
7768;BME280;3928;42.626;23.382;2023-05-27T00:59:14;94212.28;;;16.94;96.99
7768;BME280;3928;42.626;23.382;2023-05-27T01:01:41;94217.44;;;17.15;95.05
7768;BME280;3928;42.626;23.382;2023-05-27T01:04:09;94205.38;;;17.34;94.33
7768;BME280;3928;42.626;23.382;2023-05-27T01:06:44;93999.50;;;16.41;94.62
7768;BME280;3928;42.626;23.382;2023-05-27T01:09:19;94187.38;;;17.88;95.17
7768;BME280;3928;42.626;23.382;2023-05-27T01:11:50;94167.41;;;18.07;93.51
7768;BME280;3928;42.626;23.382;2023-05-27T01:14:21;94173.75;;;18.37;93.16
7768;BME280;3928;42.626;23.382;2023-05-27T01:16:51;94173.59;;;18.58;92.17
7768;BME280;3928;42.626;23.382;2023-05-27T01:19:27;94187.78;;;18.87;90.98
7768;BME280;3928;42.626;23.382;2023-05-27T01:21:59;94182.47;;;19.06;89.02
7768;BME280;3928;42.626;23.382;2023-05-27T01:24:28;94176.41;;;19.22;87.86
7768;BME280;3928;42.626;23.382;2023-05-27T01:26:55;94172.47;;;19.31;86.36
7768;BME280;3928;42.626;23.382;2023-05-27T01:29:22;94168.13;;;19.32;85.71
7768;BME280;3928;42.626;23.382;2023-05-27T01:31:55;94165.66;;;19.28;86.12
7768;BME280;3928;42.626;23.382;2023-05-27T01:34:28;94160.16;;;19.17;85.92
7768;BME280;3928;42.626;23.382;2023-05-27T01:37:03;94161.09;;;19.16;86.86
7768;BME280;3928;42.626;23.382;2023-05-27T01:39:33;94159.09;;;19.21;87.41
7768;BME280;3928;42.626;23.382;2023-05-27T01:42:01;94095.69;;;18.91;87.30
7768;BME280;3928;42.626;23.382;2023-05-27T01:44:28;94149.75;;;19.17;85.48
7768;BME280;3928;42.626;23.382;2023-05-27T01:46:58;94156.16;;;19.27;87.56
7768;BME280;3928;42.626;23.382;2023-05-27T01:49:26;94147.03;;;19.36;87.24
7768;BME280;3928;42.626;23.382;2023-05-27T01:51:52;94155.03;;;19.49;86.63
7768;BME280;3928;42.626;23.382;2023-05-27T01:54:19;94159.63;;;19.61;85.86
7768;BME280;3928;42.626;23.382;2023-05-27T01:56:48;94137.13;;;19.60;85.72
7768;BME280;3928;42.626;23.382;2023-05-27T01:59:14;94152.50;;;19.80;85.25
7768;BME280;3928;42.626;23.382;2023-05-27T02:01:41;94160.47;;;19.93;84.78
7768;BME280;3928;42.626;23.382;2023-05-27T02:04:08;94160.81;;;20.03;83.88
7768;BME280;3928;42.626;23.382;2023-05-27T02:06:35;94155.16;;;20.10;83.70
7768;BME280;3928;42.626;23.382;2023-05-27T02:09:02;94165.47;;;20.12;82.14
7768;BME280;3928;42.626;23.382;2023-05-27T02:11:29;94164.41;;;20.16;82.04
7768;BME280;3928;42.626;23.382;2023-05-27T02:13:58;94118.31;;;19.71;81.70
7768;BME280;3928;42.626;23.382;2023-05-27T02:16:26;94162.22;;;19.61;82.87
7768;BME280;3928;42.626;23.382;2023-05-27T02:18:55;94159.97;;;19.38;84.16
7768;BME280;3928;42.626;23.382;2023-05-27T02:21:23;94166.16;;;19.19;85.68
7768;BME280;3928;42.626;23.382;2023-05-27T02:23:49;94158.72;;;18.96;87.03
7768;BME280;3928;42.626;23.382;2023-05-27T02:26:16;94156.78;;;18.82;87.44
7768;BME280;3928;42.626;23.382;2023-05-27T02:28:43;94150.00;;;18.80;87.69
7768;BME280;3928;42.626;23.382;2023-05-27T02:31:11;94150.81;;;18.80;87.99
7768;BME280;3928;42.626;23.382;2023-05-27T02:33:38;94160.25;;;18.83;87.97
7768;BME280;3928;42.626;23.382;2023-05-27T02:36:05;94164.19;;;18.90;88.07
7768;BME280;3928;42.626;23.382;2023-05-27T02:38:32;94161.13;;;18.99;88.18
7768;BME280;3928;42.626;23.382;2023-05-27T02:40:59;94161.09;;;19.16;88.26
7768;BME280;3928;42.626;23.382;2023-05-27T02:43:26;94166.91;;;19.21;87.22
7768;BME280;3928;42.626;23.382;2023-05-27T02:45:52;94159.19;;;19.20;84.90
7768;BME280;3928;42.626;23.382;2023-05-27T02:48:21;94159.03;;;19.23;86.34
7768;BME280;3928;42.626;23.382;2023-05-27T02:50:47;94160.06;;;19.36;86.38
7768;BME280;3928;42.626;23.382;2023-05-27T02:53:14;94156.22;;;19.43;86.33
7768;BME280;3928;42.626;23.382;2023-05-27T02:55:41;94160.91;;;19.52;84.99
7768;BME280;3928;42.626;23.382;2023-05-27T02:58:08;94156.44;;;19.56;84.41
7768;BME280;3928;42.626;23.382;2023-05-27T03:00:35;94162.94;;;19.47;83.30
7768;BME280;3928;42.626;23.382;2023-05-27T03:03:02;94157.72;;;19.32;83.34
7768;BME280;3928;42.626;23.382;2023-05-27T03:05:33;94159.31;;;19.34;85.55
7768;BME280;3928;42.626;23.382;2023-05-27T03:08:01;94155.53;;;19.40;85.15
7768;BME280;3928;42.626;23.382;2023-05-27T03:10:28;94146.47;;;19.31;83.93
7768;BME280;3928;42.626;23.382;2023-05-27T03:12:55;94155.81;;;19.18;84.04
7768;BME280;3928;42.626;23.382;2023-05-27T03:15:21;94154.34;;;18.96;85.24
7768;BME280;3928;42.626;23.382;2023-05-27T03:17:48;94154.72;;;18.89;85.32
7768;BME280;3928;42.626;23.382;2023-05-27T03:20:15;94163.28;;;18.91;86.74
7768;BME280;3928;42.626;23.382;2023-05-27T03:22:45;94161.06;;;19.01;87.31
7768;BME280;3928;42.626;23.382;2023-05-27T03:25:12;94162.00;;;19.15;87.52
7768;BME280;3928;42.626;23.382;2023-05-27T03:27:39;94166.28;;;19.34;87.33
7768;BME280;3928;42.626;23.382;2023-05-27T03:30:07;94163.78;;;19.48;85.90
7768;BME280;3928;42.626;23.382;2023-05-27T03:32:34;94169.94;;;19.63;84.56
7768;BME280;3928;42.626;23.382;2023-05-27T03:35:01;94173.81;;;19.71;83.76
7768;BME280;3928;42.626;23.382;2023-05-27T03:37:28;94175.00;;;19.81;83.55
7768;BME280;3928;42.626;23.382;2023-05-27T03:39:56;94173.72;;;19.89;82.50
7768;BME280;3928;42.626;23.382;2023-05-27T03:42:23;94170.72;;;19.96;82.41
7768;BME280;3928;42.626;23.382;2023-05-27T03:44:50;94169.31;;;19.91;81.61
7768;BME280;3928;42.626;23.382;2023-05-27T03:47:17;94149.72;;;19.68;81.46
7768;BME280;3928;42.626;23.382;2023-05-27T03:49:46;94175.94;;;19.80;81.68
7768;BME280;3928;42.626;23.382;2023-05-27T03:52:13;94175.09;;;19.80;81.58
7768;BME280;3928;42.626;23.382;2023-05-27T03:54:40;94186.34;;;19.80;82.75
7768;BME280;3928;42.626;23.382;2023-05-27T03:57:08;94173.91;;;19.85;83.10
7768;BME280;3928;42.626;23.382;2023-05-27T03:59:36;94170.06;;;19.93;82.70
7768;BME280;3928;42.626;23.382;2023-05-27T04:02:03;94178.97;;;20.04;80.79
7768;BME280;3928;42.626;23.382;2023-05-27T04:04:30;94182.41;;;20.05;81.33
7768;BME280;3928;42.626;23.382;2023-05-27T04:06:57;94181.22;;;20.10;81.34
7768;BME280;3928;42.626;23.382;2023-05-27T04:09:24;94190.63;;;20.13;80.75
7768;BME280;3928;42.626;23.382;2023-05-27T04:11:50;94183.72;;;20.12;81.37
7768;BME280;3928;42.626;23.382;2023-05-27T04:14:19;94188.88;;;20.13;80.52
7768;BME280;3928;42.626;23.382;2023-05-27T04:16:45;94188.59;;;20.18;81.45
7768;BME280;3928;42.626;23.382;2023-05-27T04:19:13;94194.56;;;20.20;81.29
7768;BME280;3928;42.626;23.382;2023-05-27T04:21:40;94189.97;;;20.25;81.39
7768;BME280;3928;42.626;23.382;2023-05-27T04:24:08;94181.97;;;20.28;81.21
7768;BME280;3928;42.626;23.382;2023-05-27T04:26:35;94186.72;;;20.36;80.31
7768;BME280;3928;42.626;23.382;2023-05-27T04:29:02;94184.19;;;20.34;79.62
7768;BME280;3928;42.626;23.382;2023-05-27T04:31:36;94180.59;;;20.21;80.12
7768;BME280;3928;42.626;23.382;2023-05-27T04:34:03;94179.72;;;19.91;80.03
7768;BME280;3928;42.626;23.382;2023-05-27T04:36:29;94152.78;;;19.43;82.30
7768;BME280;3928;42.626;23.382;2023-05-27T04:38:58;94185.47;;;19.64;82.67
7768;BME280;3928;42.626;23.382;2023-05-27T04:41:26;94177.19;;;19.40;82.92
7768;BME280;3928;42.626;23.382;2023-05-27T04:43:54;94182.72;;;19.34;83.02
7768;BME280;3928;42.626;23.382;2023-05-27T04:46:22;94187.09;;;19.34;82.80
7768;BME280;3928;42.626;23.382;2023-05-27T04:48:52;94187.94;;;19.34;83.24
7768;BME280;3928;42.626;23.382;2023-05-27T04:51:19;94187.38;;;19.45;84.39
7768;BME280;3928;42.626;23.382;2023-05-27T04:53:46;94186.56;;;19.60;84.69
7768;BME280;3928;42.626;23.382;2023-05-27T04:56:15;94184.31;;;19.70;83.56
7768;BME280;3928;42.626;23.382;2023-05-27T04:58:43;94187.09;;;19.82;83.26
7768;BME280;3928;42.626;23.382;2023-05-27T05:01:12;94184.84;;;19.92;82.88
7768;BME280;3928;42.626;23.382;2023-05-27T05:03:43;94184.59;;;19.81;81.85
7768;BME280;3928;42.626;23.382;2023-05-27T05:06:19;94187.69;;;19.72;81.17
7768;BME280;3928;42.626;23.382;2023-05-27T05:08:46;94190.81;;;19.78;82.59
7768;BME280;3928;42.626;23.382;2023-05-27T05:11:14;94186.75;;;19.89;82.44
7768;BME280;3928;42.626;23.382;2023-05-27T05:13:41;94199.63;;;19.92;81.91
7768;BME280;3928;42.626;23.382;2023-05-27T05:16:08;94199.28;;;19.98;82.37
7768;BME280;3928;42.626;23.382;2023-05-27T05:18:34;94198.59;;;20.10;81.58
7768;BME280;3928;42.626;23.382;2023-05-27T05:21:01;94202.38;;;20.20;80.91
7768;BME280;3928;42.626;23.382;2023-05-27T05:23:29;94206.66;;;20.21;80.42
7768;BME280;3928;42.626;23.382;2023-05-27T05:25:56;94210.25;;;20.34;81.12
7768;BME280;3928;42.626;23.382;2023-05-27T05:28:31;94204.47;;;20.45;79.84
7768;BME280;3928;42.626;23.382;2023-05-27T05:30:58;94207.59;;;20.52;79.20
7768;BME280;3928;42.626;23.382;2023-05-27T05:33:25;94205.19;;;20.49;79.92
7768;BME280;3928;42.626;23.382;2023-05-27T05:35:52;94207.22;;;20.58;79.79
7768;BME280;3928;42.626;23.382;2023-05-27T05:38:18;94208.84;;;20.60;79.77
7768;BME280;3928;42.626;23.382;2023-05-27T05:40:46;94213.19;;;20.60;79.62
7768;BME280;3928;42.626;23.382;2023-05-27T05:43:15;94206.66;;;20.53;80.12
7768;BME280;3928;42.626;23.382;2023-05-27T05:45:42;94209.69;;;20.45;80.58
7768;BME280;3928;42.626;23.382;2023-05-27T05:48:08;94210.22;;;20.52;80.88
7768;BME280;3928;42.626;23.382;2023-05-27T05:50:36;94215.81;;;20.60;81.27
7768;BME280;3928;42.626;23.382;2023-05-27T05:53:03;94215.13;;;20.72;80.44
7768;BME280;3928;42.626;23.382;2023-05-27T05:55:29;94213.66;;;20.82;80.19
7768;BME280;3928;42.626;23.382;2023-05-27T05:57:57;94217.88;;;20.85;79.62
7768;BME280;3928;42.626;23.382;2023-05-27T06:00:24;94214.88;;;20.91;80.29
7768;BME280;3928;42.626;23.382;2023-05-27T06:02:52;94224.16;;;20.96;80.63
7768;BME280;3928;42.626;23.382;2023-05-27T06:05:20;94229.59;;;21.08;81.09
7768;BME280;3928;42.626;23.382;2023-05-27T06:07:47;94229.84;;;21.17;81.11
7768;BME280;3928;42.626;23.382;2023-05-27T06:10:14;94233.25;;;21.19;77.47
7768;BME280;3928;42.626;23.382;2023-05-27T06:12:42;94241.31;;;21.15;78.47
7768;BME280;3928;42.626;23.382;2023-05-27T06:15:10;94234.03;;;21.06;77.01
7768;BME280;3928;42.626;23.382;2023-05-27T06:17:37;94240.13;;;20.90;75.48
7768;BME280;3928;42.626;23.382;2023-05-27T06:20:05;94239.41;;;20.88;78.11
7768;BME280;3928;42.626;23.382;2023-05-27T06:22:32;94233.06;;;20.92;77.68
7768;BME280;3928;42.626;23.382;2023-05-27T06:24:59;94238.25;;;21.08;80.30
7768;BME280;3928;42.626;23.382;2023-05-27T06:27:26;94238.47;;;21.19;79.35
7768;BME280;3928;42.626;23.382;2023-05-27T06:29:53;94089.38;;;20.37;79.86
7768;BME280;3928;42.626;23.382;2023-05-27T06:32:22;94195.66;;;21.08;78.77
7768;BME280;3928;42.626;23.382;2023-05-27T06:34:49;94232.22;;;21.22;75.44
7768;BME280;3928;42.626;23.382;2023-05-27T06:37:16;94241.91;;;21.20;75.61
7768;BME280;3928;42.626;23.382;2023-05-27T06:39:43;94245.50;;;21.03;76.51
7768;BME280;3928;42.626;23.382;2023-05-27T06:42:10;94253.41;;;21.01;76.77
7768;BME280;3928;42.626;23.382;2023-05-27T06:44:36;94254.25;;;21.02;77.02
7768;BME280;3928;42.626;23.382;2023-05-27T06:47:04;94259.75;;;20.97;76.39
7768;BME280;3928;42.626;23.382;2023-05-27T06:49:32;94253.50;;;21.00;77.62
7768;BME280;3928;42.626;23.382;2023-05-27T06:51:59;94255.50;;;21.11;78.72
7768;BME280;3928;42.626;23.382;2023-05-27T06:54:26;94255.13;;;21.17;78.66
7768;BME280;3928;42.626;23.382;2023-05-27T06:56:52;94253.63;;;21.13;77.12
7768;BME280;3928;42.626;23.382;2023-05-27T06:59:19;94255.69;;;21.08;77.86
7768;BME280;3928;42.626;23.382;2023-05-27T07:01:46;94259.59;;;21.15;80.84
7768;BME280;3928;42.626;23.382;2023-05-27T07:04:13;94259.03;;;21.10;78.61
7768;BME280;3928;42.626;23.382;2023-05-27T07:06:42;94243.38;;;21.10;78.50
7768;BME280;3928;42.626;23.382;2023-05-27T07:09:09;94254.03;;;21.21;78.79
7768;BME280;3928;42.626;23.382;2023-05-27T07:11:36;94254.97;;;21.20;77.24
7768;BME280;3928;42.626;23.382;2023-05-27T07:14:03;94252.88;;;21.11;75.43
7768;BME280;3928;42.626;23.382;2023-05-27T07:16:30;94257.59;;;20.74;76.53
7768;BME280;3928;42.626;23.382;2023-05-27T07:18:57;94253.94;;;20.92;77.30
7768;BME280;3928;42.626;23.382;2023-05-27T07:21:23;94257.69;;;21.02;78.06
7768;BME280;3928;42.626;23.382;2023-05-27T07:23:51;94265.66;;;21.15;77.79
7768;BME280;3928;42.626;23.382;2023-05-27T07:26:18;94257.13;;;21.27;77.85
7768;BME280;3928;42.626;23.382;2023-05-27T07:28:46;94265.94;;;21.11;77.13
7768;BME280;3928;42.626;23.382;2023-05-27T07:31:12;94264.91;;;21.13;76.82
7768;BME280;3928;42.626;23.382;2023-05-27T07:33:39;94260.72;;;21.25;77.81
7768;BME280;3928;42.626;23.382;2023-05-27T07:36:07;94253.25;;;21.19;77.15
7768;BME280;3928;42.626;23.382;2023-05-27T07:38:34;94271.34;;;21.08;76.98
7768;BME280;3928;42.626;23.382;2023-05-27T07:41:02;94261.25;;;21.16;78.62
7768;BME280;3928;42.626;23.382;2023-05-27T07:43:29;94270.47;;;21.37;78.80
7768;BME280;3928;42.626;23.382;2023-05-27T07:45:55;94274.44;;;21.44;76.13
7768;BME280;3928;42.626;23.382;2023-05-27T07:48:22;94261.28;;;21.46;76.44
7768;BME280;3928;42.626;23.382;2023-05-27T07:50:49;94264.63;;;21.62;75.60
7768;BME280;3928;42.626;23.382;2023-05-27T07:53:16;94265.31;;;21.80;75.42
7768;BME280;3928;42.626;23.382;2023-05-27T07:55:42;94279.47;;;21.90;74.51
7768;BME280;3928;42.626;23.382;2023-05-27T07:58:11;94274.00;;;21.80;74.19
7768;BME280;3928;42.626;23.382;2023-05-27T08:00:38;94277.44;;;21.81;73.87
7768;BME280;3928;42.626;23.382;2023-05-27T08:03:04;94267.44;;;21.87;74.84
7768;BME280;3928;42.626;23.382;2023-05-27T08:05:31;94276.13;;;21.88;71.79
7768;BME280;3928;42.626;23.382;2023-05-27T08:07:58;94278.44;;;21.78;69.26
7768;BME280;3928;42.626;23.382;2023-05-27T08:10:25;94273.59;;;21.72;69.49
7768;BME280;3928;42.626;23.382;2023-05-27T08:12:52;94284.53;;;21.79;68.98
7768;BME280;3928;42.626;23.382;2023-05-27T08:15:20;94274.25;;;21.76;70.17
7768;BME280;3928;42.626;23.382;2023-05-27T08:17:48;94253.94;;;21.67;70.11
7768;BME280;3928;42.626;23.382;2023-05-27T08:20:16;94251.13;;;21.84;70.67
7768;BME280;3928;42.626;23.382;2023-05-27T08:22:43;94279.84;;;21.98;69.90
7768;BME280;3928;42.626;23.382;2023-05-27T08:25:11;94268.19;;;22.04;69.60
7768;BME280;3928;42.626;23.382;2023-05-27T08:27:45;94274.84;;;22.09;69.51
7768;BME280;3928;42.626;23.382;2023-05-27T08:30:13;94278.56;;;22.20;69.66
7768;BME280;3928;42.626;23.382;2023-05-27T08:32:41;94241.59;;;21.97;69.46
7768;BME280;3928;42.626;23.382;2023-05-27T08:35:08;94278.44;;;22.35;70.27
7768;BME280;3928;42.626;23.382;2023-05-27T08:37:35;94284.50;;;22.36;69.60
7768;BME280;3928;42.626;23.382;2023-05-27T08:40:03;94258.00;;;22.28;69.52
7768;BME280;3928;42.626;23.382;2023-05-27T08:42:32;94266.41;;;22.33;68.85
7768;BME280;3928;42.626;23.382;2023-05-27T08:44:59;94278.25;;;22.38;67.93
7768;BME280;3928;42.626;23.382;2023-05-27T08:47:26;94255.56;;;22.25;69.00
7768;BME280;3928;42.626;23.382;2023-05-27T08:49:56;94278.91;;;22.42;69.66
7768;BME280;3928;42.626;23.382;2023-05-27T08:52:24;94266.03;;;22.39;68.94
7768;BME280;3928;42.626;23.382;2023-05-27T08:54:53;94275.72;;;22.51;68.61
7768;BME280;3928;42.626;23.382;2023-05-27T08:57:21;94276.44;;;22.53;67.72
7768;BME280;3928;42.626;23.382;2023-05-27T08:59:50;94269.88;;;22.60;68.61
7768;BME280;3928;42.626;23.382;2023-05-27T09:02:17;94254.69;;;22.53;67.54
7768;BME280;3928;42.626;23.382;2023-05-27T09:04:45;94261.22;;;22.72;68.11
7768;BME280;3928;42.626;23.382;2023-05-27T09:07:14;94263.47;;;22.79;68.04
7768;BME280;3928;42.626;23.382;2023-05-27T09:09:41;94260.06;;;22.91;67.18
7768;BME280;3928;42.626;23.382;2023-05-27T09:12:08;94262.84;;;23.02;67.47
7768;BME280;3928;42.626;23.382;2023-05-27T09:14:35;94260.56;;;23.10;65.33
7768;BME280;3928;42.626;23.382;2023-05-27T09:17:08;94262.97;;;23.13;64.45
7768;BME280;3928;42.626;23.382;2023-05-27T09:19:34;94270.22;;;23.22;64.51
7768;BME280;3928;42.626;23.382;2023-05-27T09:22:01;94246.84;;;23.19;63.71
7768;BME280;3928;42.626;23.382;2023-05-27T09:24:29;94260.81;;;23.45;62.52
7768;BME280;3928;42.626;23.382;2023-05-27T09:26:56;94254.81;;;23.56;62.19
7768;BME280;3928;42.626;23.382;2023-05-27T09:29:23;94256.75;;;23.67;62.77
7768;BME280;3928;42.626;23.382;2023-05-27T09:31:53;94249.44;;;23.84;61.59
7768;BME280;3928;42.626;23.382;2023-05-27T09:34:21;94262.28;;;24.13;61.16
7768;BME280;3928;42.626;23.382;2023-05-27T09:36:49;94257.22;;;24.35;58.65
7768;BME280;3928;42.626;23.382;2023-05-27T09:39:18;94255.09;;;24.53;57.04
7768;BME280;3928;42.626;23.382;2023-05-27T09:41:52;94251.22;;;24.70;56.87
7768;BME280;3928;42.626;23.382;2023-05-27T09:44:19;94251.16;;;24.83;56.24
7768;BME280;3928;42.626;23.382;2023-05-27T09:46:47;94244.84;;;24.85;56.88
7768;BME280;3928;42.626;23.382;2023-05-27T09:49:16;94247.00;;;24.80;55.72
7768;BME280;3928;42.626;23.382;2023-05-27T09:51:45;94245.84;;;24.95;56.01
7768;BME280;3928;42.626;23.382;2023-05-27T09:54:18;94256.34;;;24.95;55.88
7768;BME280;3928;42.626;23.382;2023-05-27T09:56:45;94240.28;;;25.00;56.55
7768;BME280;3928;42.626;23.382;2023-05-27T09:59:13;94244.53;;;25.14;53.89
7768;BME280;3928;42.626;23.382;2023-05-27T10:01:40;94243.91;;;25.34;52.04
7768;BME280;3928;42.626;23.382;2023-05-27T10:04:09;94244.66;;;25.58;52.52
7768;BME280;3928;42.626;23.382;2023-05-27T10:06:37;94242.31;;;25.78;53.21
7768;BME280;3928;42.626;23.382;2023-05-27T10:09:06;94243.16;;;25.89;53.22
7768;BME280;3928;42.626;23.382;2023-05-27T10:11:33;94248.06;;;25.94;52.28
7768;BME280;3928;42.626;23.382;2023-05-27T10:14:02;94232.31;;;26.05;50.96
7768;BME280;3928;42.626;23.382;2023-05-27T10:16:31;94236.22;;;26.11;51.22
7768;BME280;3928;42.626;23.382;2023-05-27T10:18:58;94246.75;;;26.11;50.30
7768;BME280;3928;42.626;23.382;2023-05-27T10:21:27;94239.94;;;26.19;49.97
7768;BME280;3928;42.626;23.382;2023-05-27T10:23:56;94231.56;;;26.26;50.13
7768;BME280;3928;42.626;23.382;2023-05-27T10:26:33;94236.84;;;26.37;49.50
7768;BME280;3928;42.626;23.382;2023-05-27T10:29:07;94235.00;;;26.48;49.85
7768;BME280;3928;42.626;23.382;2023-05-27T10:31:36;94224.13;;;26.53;49.28
7768;BME280;3928;42.626;23.382;2023-05-27T10:34:09;94238.22;;;26.63;47.83
7768;BME280;3928;42.626;23.382;2023-05-27T10:36:36;94237.72;;;26.69;47.98
7768;BME280;3928;42.626;23.382;2023-05-27T10:39:04;94233.38;;;26.79;48.06
7768;BME280;3928;42.626;23.382;2023-05-27T10:41:39;94204.38;;;26.91;47.10
7768;BME280;3928;42.626;23.382;2023-05-27T10:44:06;94226.22;;;27.14;47.27
7768;BME280;3928;42.626;23.382;2023-05-27T10:46:42;94219.94;;;26.94;46.98
7768;BME280;3928;42.626;23.382;2023-05-27T10:49:10;94202.00;;;26.88;48.02
7768;BME280;3928;42.626;23.382;2023-05-27T10:51:37;94218.00;;;26.96;47.93
7768;BME280;3928;42.626;23.382;2023-05-27T10:54:05;94228.53;;;26.96;48.08
7768;BME280;3928;42.626;23.382;2023-05-27T10:56:32;94220.66;;;26.85;47.75
7768;BME280;3928;42.626;23.382;2023-05-27T10:59:00;94214.41;;;26.65;47.34
7768;BME280;3928;42.626;23.382;2023-05-27T11:01:28;94215.59;;;26.61;47.66
7768;BME280;3928;42.626;23.382;2023-05-27T11:03:59;94216.94;;;26.55;48.27
7768;BME280;3928;42.626;23.382;2023-05-27T11:06:26;94216.72;;;26.47;49.32
7768;BME280;3928;42.626;23.382;2023-05-27T11:08:53;94214.34;;;26.21;49.24
7768;BME280;3928;42.626;23.382;2023-05-27T11:11:19;94211.00;;;25.86;49.79
7768;BME280;3928;42.626;23.382;2023-05-27T11:13:46;94206.88;;;25.37;50.97
7768;BME280;3928;42.626;23.382;2023-05-27T11:16:14;94208.28;;;25.30;51.95
7768;BME280;3928;42.626;23.382;2023-05-27T11:18:42;94184.69;;;25.06;51.75
7768;BME280;3928;42.626;23.382;2023-05-27T11:21:12;94090.88;;;24.62;53.97
7768;BME280;3928;42.626;23.382;2023-05-27T11:23:42;94190.59;;;25.32;53.04
7768;BME280;3928;42.626;23.382;2023-05-27T11:26:14;94205.81;;;25.51;52.33
7768;BME280;3928;42.626;23.382;2023-05-27T11:28:48;94189.94;;;25.63;52.29
7768;BME280;3928;42.626;23.382;2023-05-27T11:31:16;94183.97;;;25.61;51.97
7768;BME280;3928;42.626;23.382;2023-05-27T11:33:44;94197.63;;;25.78;52.75
7768;BME280;3928;42.626;23.382;2023-05-27T11:36:13;94193.44;;;25.86;52.13
7768;BME280;3928;42.626;23.382;2023-05-27T11:38:48;94183.25;;;25.59;51.55
7768;BME280;3928;42.626;23.382;2023-05-27T11:41:15;94180.75;;;25.80;52.64
7768;BME280;3928;42.626;23.382;2023-05-27T11:43:50;94178.25;;;26.01;50.98
7768;BME280;3928;42.626;23.382;2023-05-27T11:46:17;94175.16;;;26.07;50.48
7768;BME280;3928;42.626;23.382;2023-05-27T11:48:44;94172.84;;;26.36;50.55
7768;BME280;3928;42.626;23.382;2023-05-27T11:51:13;94174.81;;;26.66;49.16
7768;BME280;3928;42.626;23.382;2023-05-27T11:53:40;94165.69;;;26.70;47.67
7768;BME280;3928;42.626;23.382;2023-05-27T11:56:08;94157.44;;;26.64;47.89
7768;BME280;3928;42.626;23.382;2023-05-27T11:58:34;94169.72;;;26.74;47.18
7768;BME280;3928;42.626;23.382;2023-05-27T12:01:02;94165.00;;;26.89;46.33
7768;BME280;3928;42.626;23.382;2023-05-27T12:03:30;94166.22;;;26.85;46.82
7768;BME280;3928;42.626;23.382;2023-05-27T12:05:57;94159.13;;;26.86;46.15
7768;BME280;3928;42.626;23.382;2023-05-27T12:08:25;94152.28;;;26.94;45.89
7768;BME280;3928;42.626;23.382;2023-05-27T12:10:52;94143.66;;;27.03;46.48
7768;BME280;3928;42.626;23.382;2023-05-27T12:13:20;94146.72;;;27.29;46.62
7768;BME280;3928;42.626;23.382;2023-05-27T12:15:47;94154.56;;;27.41;46.70
7768;BME280;3928;42.626;23.382;2023-05-27T12:18:14;94148.25;;;27.53;45.98
7768;BME280;3928;42.626;23.382;2023-05-27T12:20:41;94140.97;;;27.45;44.32
7768;BME280;3928;42.626;23.382;2023-05-27T12:23:08;94145.78;;;26.77;45.88
7768;BME280;3928;42.626;23.382;2023-05-27T12:25:36;94132.75;;;26.44;47.38
7768;BME280;3928;42.626;23.382;2023-05-27T12:28:06;94121.06;;;26.26;47.05
7768;BME280;3928;42.626;23.382;2023-05-27T12:30:32;94120.84;;;26.17;47.49
7768;BME280;3928;42.626;23.382;2023-05-27T12:33:00;94114.94;;;26.36;48.82
7768;BME280;3928;42.626;23.382;2023-05-27T12:35:27;94114.34;;;26.44;48.27
7768;BME280;3928;42.626;23.382;2023-05-27T12:37:54;94115.13;;;26.01;47.19
7768;BME280;3928;42.626;23.382;2023-05-27T12:40:21;94111.34;;;25.83;48.04
7768;BME280;3928;42.626;23.382;2023-05-27T12:42:49;94109.44;;;25.85;48.03
7768;BME280;3928;42.626;23.382;2023-05-27T12:45:16;94104.66;;;25.79;47.45
7768;BME280;3928;42.626;23.382;2023-05-27T12:47:43;94098.28;;;25.92;47.28
7768;BME280;3928;42.626;23.382;2023-05-27T12:50:10;94108.72;;;25.49;47.88
7768;BME280;3928;42.626;23.382;2023-05-27T12:52:37;94091.38;;;25.69;46.66
7768;BME280;3928;42.626;23.382;2023-05-27T12:55:06;94083.59;;;25.67;47.66
7768;BME280;3928;42.626;23.382;2023-05-27T12:57:33;94081.25;;;25.76;47.36
7768;BME280;3928;42.626;23.382;2023-05-27T13:00:01;94096.31;;;25.74;47.94
7768;BME280;3928;42.626;23.382;2023-05-27T13:02:28;94088.63;;;25.93;47.07
7768;BME280;3928;42.626;23.382;2023-05-27T13:04:55;94095.06;;;25.89;47.17
7768;BME280;3928;42.626;23.382;2023-05-27T13:07:22;94090.91;;;25.86;48.03
7768;BME280;3928;42.626;23.382;2023-05-27T13:09:48;94088.63;;;25.93;47.56
7768;BME280;3928;42.626;23.382;2023-05-27T13:12:15;94072.81;;;26.04;46.10